KALS

San Luis Valley Regional / Bergman Field Airport

Alamosa, Colorado, USA
KALS 182333Z 1900/1924 VRB06KT P6SM FEW060 FM191200 VRB06KT P6SM FEW010 FM191600 VRB06KT P6SM FEW150
Issued Valid From Valid To
Nov-18 @ 23:33 UTC
(2 hours ago)
Nov-19 @ 00:00 UTC
(an hour ago)
Nov-20 @ 00:00 UTC
(in 23 hours)
Nov-19 @ 00:00 to Nov-19 @ 12:00
KALS 182333Z 1900/1924 VRB06KT P6SM FEW060
Wind Visibility Clouds
Variable at 6 knots Greater than 6 miles
  • Few at 6,000' AGL
From Nov-19 @ 12:00 to Nov-19 @ 16:00
FM191200 VRB06KT P6SM FEW010
Wind Visibility Clouds
Variable at 6 knots Greater than 6 miles
  • Few at 1,000' AGL
From Nov-19 @ 16:00 to Nov-20 @ 00:00
FM191600 VRB06KT P6SM FEW150
Wind Visibility Clouds
Variable at 6 knots Greater than 6 miles
  • Few at 15,000' AGL
KALS 182333Z 1900/1924 VRB06KT P6SM FEW060 FM191200 VRB06KT P6SM FEW010 FM191600 VRB06KT P6SM FEW150
Issued Nov-18 @ 23:33 UTC
(2 hours ago)
Valid From Nov-19 @ 00:00 UTC
(an hour ago)
Valid To Nov-20 @ 00:00 UTC
(in 23 hours)
Nov-19 @ 00:00 - Nov-19 @ 12:00
Wind Visibility
Variable at 6 knots Greater than 6 miles
Clouds
  • Few at 6,000' AGL
From Nov-19 @ 12:00 - Nov-19 @ 16:00
Wind Visibility
Variable at 6 knots Greater than 6 miles
Clouds
  • Few at 1,000' AGL
From Nov-19 @ 16:00 - Nov-20 @ 00:00
Wind Visibility
Variable at 6 knots Greater than 6 miles
Clouds
  • Few at 15,000' AGL